Time;durP1;ratioP1;P1;durP2;ratioP2;P2;SDS_P1;SDS_P2;PMS_P1;PMS_P2;Temp;Humidity;BMP_temperature;BMP_pressure;BME280_temperature;BME280_humidity;BME280_pressure;Samples;Min_cycle;Max_cycle;Signal;HPM_P1;HPM_P2
2022/03/25 00:00:01;;;;;;;;;;;;;;;10.50;31.66;100445.16;5237897;27;34204;-94
2022/03/25 00:03:12;;;;;;;;;;;;;;;10.55;31.76;100443.41;5219249;27;33102;-96
2022/03/25 00:06:21;;;;;;;;;;;;;;;10.15;32.32;100447.72;5237910;27;33857;-94
2022/03/25 00:08:52;;;;;;;;;;;;;;;9.78;32.77;100445.91;5234383;27;35019;-94
2022/03/25 00:12:05;;;;;;;;;;;;;;;10.02;32.00;100445.09;5239377;27;34182;-94
2022/03/25 00:14:57;;;;;;;;;;;;;;;9.70;32.52;100444.19;5219952;27;32904;-95
2022/03/25 00:18:12;;;;;;;;;;;;;;;9.57;32.79;100441.56;5220978;27;33021;-95
2022/03/25 00:21:41;;;;;;;;;;;;;;;9.55;33.18;100445.88;5219224;27;32850;-95
2022/03/25 00:24:20;;;;;;;;;;;;;;;9.24;33.88;100447.47;5240554;27;33147;-94
2022/03/25 00:27:31;;;;;;;;;;;;;;;9.19;34.08;100441.44;5219340;27;33860;-93
2022/03/25 00:30:20;;;;;;;;;;;;;;;9.29;33.78;100437.16;5220428;27;32753;-94
2022/03/25 00:32:50;;;;;;;;;;;;;;;9.17;34.03;100437.97;5218073;27;31718;-94
2022/03/25 00:36:03;;;;;;;;;;;;;;;9.40;33.72;100433.75;5216409;27;32745;-96
2022/03/25 00:38:54;;;;;;;;;;;;;;;9.44;33.60;100437.19;5219280;27;32610;-94
2022/03/25 00:41:32;;;;;;;;;;;;;;;9.01;34.40;100441.31;5236558;27;34764;-94
2022/03/25 00:44:21;;;;;;;;;;;;;;;9.39;33.54;100441.50;5217112;27;32370;-93
2022/03/25 00:47:18;;;;;;;;;;;;;;;9.29;33.81;100440.59;5236359;27;34774;-96
2022/03/25 00:50:27;;;;;;;;;;;;;;;9.37;33.58;100433.75;5216214;27;33859;-94
2022/03/25 00:53:16;;;;;;;;;;;;;;;9.17;34.01;100444.00;5236859;27;34391;-95
2022/03/25 00:56:25;;;;;;;;;;;;;;;9.31;33.77;100438.88;5218235;27;32248;-94
2022/03/25 00:59:02;;;;;;;;;;;;;;;9.11;34.17;100437.91;5235639;27;33956;-96
2022/03/25 01:01:53;;;;;;;;;;;;;;;9.03;34.25;100445.66;5217042;27;34268;-94
2022/03/25 01:04:23;;;;;;;;;;;;;;;8.93;34.51;100439.56;5236609;27;34163;-95
2022/03/25 01:07:04;;;;;;;;;;;;;;;8.79;34.90;100436.03;5239675;27;31971;-94
2022/03/25 01:09:54;;;;;;;;;;;;;;;8.75;35.01;100436.87;5241153;27;34006;-94
2022/03/25 01:12:45;;;;;;;;;;;;;;;8.92;34.88;100434.41;5217008;27;32805;-95
2022/03/25 01:15:16;;;;;;;;;;;;;;;8.63;35.18;100436.81;5238021;27;33759;-92
2022/03/25 01:17:48;;;;;;;;;;;;;;;8.72;35.15;100434.25;5218788;27;31993;-94
2022/03/25 01:20:34;;;;;;;;;;;;;;;8.62;35.30;100432.47;5214927;27;34895;-96
2022/03/25 01:24:00;;;;;;;;;;;;;;;8.46;35.71;100440.13;5215906;27;33257;-95
2022/03/25 01:26:49;;;;;;;;;;;;;;;8.48;35.67;100433.25;5239906;27;34711;-93
2022/03/25 01:30:17;;;;;;;;;;;;;;;8.33;36.02;100433.09;5236764;27;34280;-93
2022/03/25 01:32:52;;;;;;;;;;;;;;;8.26;36.21;100439.06;5238014;27;33881;-94
2022/03/25 01:35:24;;;;;;;;;;;;;;;8.53;35.80;100439.31;5238654;27;34718;-93
2022/03/25 01:38:26;;;;;;;;;;;;;;;8.59;35.88;100440.22;5237947;27;34390;-94
2022/03/25 01:41:15;;;;;;;;;;;;;;;8.53;36.10;100444.50;5241131;27;34396;-95
2022/03/25 01:44:13;;;;;;;;;;;;;;;8.49;36.28;100447.91;5217928;27;34113;-95
2022/03/25 01:46:44;;;;;;;;;;;;;;;8.50;36.30;100446.19;5221350;27;32724;-95
2022/03/25 01:49:54;;;;;;;;;;;;;;;8.65;35.94;100450.59;5236731;27;34097;-95
2022/03/25 01:52:35;;;;;;;;;;;;;;;8.21;36.67;100451.09;5236308;27;33976;-96
2022/03/25 01:55:16;;;;;;;;;;;;;;;8.44;36.39;100454.75;5237394;27;34383;-95
2022/03/25 01:57:46;;;;;;;;;;;;;;;8.15;36.69;100449.31;5235233;27;32408;-95
2022/03/25 02:00:34;;;;;;;;;;;;;;;8.41;36.27;100453.84;5215347;27;33780;-96
2022/03/25 02:03:24;;;;;;;;;;;;;;;8.19;36.53;100450.19;5217223;27;32883;-93
2022/03/25 02:06:53;;;;;;;;;;;;;;;8.34;36.41;100455.53;5215639;27;32222;-95
2022/03/25 02:09:23;;;;;;;;;;;;;;;8.15;36.58;100457.06;5233706;27;34096;-95
2022/03/25 02:12:20;;;;;;;;;;;;;;;8.37;36.27;100455.53;5217349;27;33033;-95
2022/03/25 02:15:51;;;;;;;;;;;;;;;8.40;36.22;100460.75;5216792;27;31834;-93
2022/03/25 02:19:28;;;;;;;;;;;;;;;8.42;36.20;100461.63;5217353;27;33403;-95
2022/03/25 02:22:39;;;;;;;;;;;;;;;8.21;37.00;100466.59;5237013;27;34467;-94
2022/03/25 02:25:30;;;;;;;;;;;;;;;8.03;37.39;100467.31;5202481;27;33130;-95
2022/03/25 02:28:00;;;;;;;;;;;;;;;8.03;37.72;100465.56;5218718;27;31847;-94
2022/03/25 02:30:33;;;;;;;;;;;;;;;7.92;38.16;100467.19;5232775;27;32419;-94
2022/03/25 02:33:39;;;;;;;;;;;;;;;7.86;38.32;100472.31;5234726;27;34802;-96
2022/03/25 02:36:56;;;;;;;;;;;;;;;7.80;38.26;100464.47;5233550;27;33918;-96
2022/03/25 02:40:07;;;;;;;;;;;;;;;7.66;38.60;100472.09;5237711;27;33112;-94
2022/03/25 02:42:57;;;;;;;;;;;;;;;7.53;38.84;100480.53;5237527;27;34395;-95
2022/03/25 02:46:25;;;;;;;;;;;;;;;7.78;38.49;100476.50;5218463;27;33167;-95
2022/03/25 02:49:16;;;;;;;;;;;;;;;7.64;38.77;100489.28;5216040;27;32851;-96
2022/03/25 02:51:44;;;;;;;;;;;;;;;7.78;38.54;100492.00;5236352;27;33471;-95
2022/03/25 02:54:55;;;;;;;;;;;;;;;7.82;38.52;100492.06;5219046;27;32875;-94
2022/03/25 02:58:25;;;;;;;;;;;;;;;7.79;38.60;100488.59;5234973;27;33588;-95
2022/03/25 03:01:06;;;;;;;;;;;;;;;7.77;38.38;100493.72;5236917;27;33797;-94
2022/03/25 03:04:15;;;;;;;;;;;;;;;7.70;38.58;100502.25;5237612;27;35201;-95
2022/03/25 03:06:45;;;;;;;;;;;;;;;7.45;38.90;100506.25;5202637;27;32535;-94
2022/03/25 03:09:15;;;;;;;;;;;;;;;7.40;39.08;100507.94;5218748;27;34690;-94
2022/03/25 03:12:12;;;;;;;;;;;;;;;7.44;39.18;100504.50;5237080;27;33828;-93
2022/03/25 03:14:47;;;;;;;;;;;;;;;7.38;39.41;100507.91;5218382;27;32374;-95
2022/03/25 03:17:36;;;;;;;;;;;;;;;7.32;39.72;100506.94;5215086;27;33433;-96
2022/03/25 03:20:11;;;;;;;;;;;;;;;7.35;39.38;100519.91;5217764;27;33087;-95
2022/03/25 03:23:23;;;;;;;;;;;;;;;7.34;39.33;100508.69;5235084;27;34516;-96
2022/03/25 03:26:00;;;;;;;;;;;;;;;7.13;39.66;100506.72;5231863;27;32278;-95
2022/03/25 03:28:34;;;;;;;;;;;;;;;7.08;39.88;100513.53;5217480;27;32767;-94
2022/03/25 03:32:06;;;;;;;;;;;;;;;6.99;40.07;100514.25;5234453;27;32354;-95
2022/03/25 03:34:56;;;;;;;;;;;;;;;6.94;40.32;100509.88;5218882;27;33187;-94
2022/03/25 03:38:25;;;;;;;;;;;;;;;7.04;40.10;100512.59;5236304;27;33111;-96
2022/03/25 03:40:54;;;;;;;;;;;;;;;6.86;40.53;100514.03;5235368;27;34428;-94
2022/03/25 03:43:24;;;;;;;;;;;;;;;6.93;40.53;100508.97;5239297;27;34231;-95
2022/03/25 03:46:54;;;;;;;;;;;;;;;6.81;40.71;100501.06;5240062;27;33597;-94
2022/03/25 03:50:06;;;;;;;;;;;;;;;6.81;40.72;100507.13;5234558;27;33283;-94
2022/03/25 03:52:52;;;;;;;;;;;;;;;6.82;40.84;100505.41;5220631;27;32798;-95
2022/03/25 03:55:23;;;;;;;;;;;;;;;6.57;41.28;100504.13;5219339;27;33399;-95
2022/03/25 03:58:34;;;;;;;;;;;;;;;6.35;41.98;100508.91;5221752;27;34157;-95
2022/03/25 04:02:04;;;;;;;;;;;;;;;6.33;42.18;100509.75;5223322;27;33183;-94
2022/03/25 04:04:37;;;;;;;;;;;;;;;6.66;41.50;100503.41;5237822;27;34054;-94
2022/03/25 04:07:28;;;;;;;;;;;;;;;6.73;41.44;100505.25;5221070;27;33788;-95
2022/03/25 04:09:58;;;;;;;;;;;;;;;6.84;41.14;100504.56;5233729;27;34010;-95
2022/03/25 04:13:06;;;;;;;;;;;;;;;6.78;41.42;100504.47;5215422;27;31968;-94
2022/03/25 04:15:56;;;;;;;;;;;;;;;6.79;41.54;100503.62;5236646;27;34424;-95
2022/03/25 04:18:53;;;;;;;;;;;;;;;6.53;42.17;100502.38;5216325;27;32658;-94
2022/03/25 04:21:45;;;;;;;;;;;;;;;6.59;41.99;100497.28;5236630;27;33501;-95
2022/03/25 04:25:17;;;;;;;;;;;;;;;6.45;42.26;100502.25;5217695;27;32021;-95
2022/03/25 04:28:06;;;;;;;;;;;;;;;6.61;41.86;100495.59;5217180;27;32446;-95
2022/03/25 04:31:16;;;;;;;;;;;;;;;6.52;41.79;100495.47;5236577;27;34802;-95
2022/03/25 04:34:06;;;;;;;;;;;;;;;6.59;41.65;100498.16;5217779;27;33249;-96
2022/03/25 04:37:18;;;;;;;;;;;;;;;6.55;41.92;100506.69;5236652;27;33338;-95
2022/03/25 04:40:48;;;;;;;;;;;;;;;6.35;42.22;100506.34;5235087;27;32831;-94
2022/03/25 04:43:45;;;;;;;;;;;;;;;6.31;42.37;100507.16;5216362;27;32909;-95
2022/03/25 04:46:35;;;;;;;;;;;;;;;6.46;42.07;100510.84;5216277;27;33011;-96
2022/03/25 04:49:08;;;;;;;;;;;;;;;6.38;42.11;100515.88;5232636;27;33755;-96
2022/03/25 04:51:37;;;;;;;;;;;;;;;6.16;42.79;100517.19;5214017;27;33361;-96
2022/03/25 04:54:45;;;;;;;;;;;;;;;6.07;42.93;100514.47;5215347;27;33679;-94
2022/03/25 04:57:39;;;;;;;;;;;;;;;6.09;43.02;100515.31;5236043;27;34076;-94
2022/03/25 05:00:30;;;;;;;;;;;;;;;6.20;42.91;100517.25;5233504;27;32509;-94
2022/03/25 05:03:00;;;;;;;;;;;;;;;6.09;43.43;100516.22;5220651;27;32455;-94
2022/03/25 05:05:31;;;;;;;;;;;;;;;6.05;43.62;100517.00;5214475;27;33660;-93
2022/03/25 05:08:21;;;;;;;;;;;;;;;6.12;43.52;100521.41;5214673;27;33011;-94
2022/03/25 05:10:50;;;;;;;;;;;;;;;6.36;42.94;100515.84;5214784;27;32187;-93
2022/03/25 05:13:55;;;;;;;;;;;;;;;6.45;42.74;100515.13;5233416;27;34150;-94
2022/03/25 05:16:24;;;;;;;;;;;;;;;6.69;42.22;100517.22;5232658;27;32271;-96
2022/03/25 05:19:13;;;;;;;;;;;;;;;6.80;42.08;100522.56;5215462;27;33750;-94
2022/03/25 05:21:58;;;;;;;;;;;;;;;6.91;41.83;100525.28;5215750;27;32507;-94
2022/03/25 05:24:28;;;;;;;;;;;;;;;7.31;41.24;100529.31;5218392;27;32925;-95
2022/03/25 05:28:04;;;;;;;;;;;;;;;7.32;41.19;100525.00;5238801;27;32626;-95
2022/03/25 05:31:24;;;;;;;;;;;;;;;7.00;42.35;100530.59;5219117;27;33004;-96
2022/03/25 05:34:52;;;;;;;;;;;;;;;6.96;42.25;100532.28;5235848;27;33084;-95
2022/03/25 05:37:42;;;;;;;;;;;;;;;7.20;41.73;100536.91;5235724;27;33624;-95
2022/03/25 05:40:31;;;;;;;;;;;;;;;7.46;41.28;100541.53;5214044;27;33772;-95
2022/03/25 05:43:40;;;;;;;;;;;;;;;7.58;40.74;100535.69;5234742;27;34946;-95
2022/03/25 05:46:51;;;;;;;;;;;;;;;7.63;40.75;100544.34;5235605;27;33126;-95
2022/03/25 05:50:34;;;;;;;;;;;;;;;7.59;40.95;100545.19;5236842;27;35154;-93
2022/03/25 05:53:33;;;;;;;;;;;;;;;7.79;40.46;100543.69;5215536;27;33097;-95
2022/03/25 05:57:22;;;;;;;;;;;;;;;7.92;40.31;100547.28;5217083;27;33204;-96
2022/03/25 06:00:33;;;;;;;;;;;;;;;7.59;41.25;100538.28;5217886;27;32849;-94
2022/03/25 06:04:03;;;;;;;;;;;;;;;8.01;40.58;100537.03;5219606;27;32554;-95
2022/03/25 06:07:57;;;;;;;;;;;;;;;8.39;39.64;100540.88;5237546;27;33426;-95
2022/03/25 06:10:46;;;;;;;;;;;;;;;8.40;40.18;100534.88;5238618;27;33941;-93
2022/03/25 06:13:14;;;;;;;;;;;;;;;8.45;40.09;100540.97;5212841;27;31977;-93
2022/03/25 06:15:46;;;;;;;;;;;;;;;8.56;39.89;100538.47;5214493;27;32786;-95
2022/03/25 06:18:14;;;;;;;;;;;;;;;8.84;39.43;100534.38;5232155;27;32945;-93
2022/03/25 06:20:44;;;;;;;;;;;;;;;8.88;39.91;100534.41;5232436;27;34093;-95
2022/03/25 06:23:13;;;;;;;;;;;;;;;9.10;39.75;100537.16;5231745;27;33965;-94
2022/03/25 06:25:42;;;;;;;;;;;;;;;9.12;39.38;100545.78;5235478;27;34809;-93
2022/03/25 06:28:10;;;;;;;;;;;;;;;9.04;39.49;100542.31;5228827;27;33241;-94
2022/03/25 06:30:39;;;;;;;;;;;;;;;9.36;39.08;100547.66;5211779;27;33802;-93
2022/03/25 06:33:09;;;;;;;;;;;;;;;9.59;38.48;100545.19;5232038;27;32428;-94
2022/03/25 06:35:38;;;;;;;;;;;;;;;9.51;38.69;100547.75;5231237;27;34201;-95
2022/03/25 06:38:09;;;;;;;;;;;;;;;9.59;38.92;100551.25;5236031;27;34428;-92
2022/03/25 06:40:37;;;;;;;;;;;;;;;9.81;38.74;100548.75;5230111;27;33286;-94
2022/03/25 06:43:06;;;;;;;;;;;;;;;9.95;38.49;100546.19;5209165;27;31915;-93
2022/03/25 06:45:36;;;;;;;;;;;;;;;10.04;38.61;100551.41;5200305;27;788598;-92
2022/03/25 06:48:05;;;;;;;;;;;;;;;10.42;38.19;100550.66;5229692;27;34639;-94
2022/03/25 06:50:33;;;;;;;;;;;;;;;10.49;38.00;100554.97;5236759;27;33940;-96
2022/03/25 06:53:04;;;;;;;;;;;;;;;10.54;38.16;100561.03;5231013;27;33518;-92
2022/03/25 06:55:36;;;;;;;;;;;;;;;10.97;36.06;100562.75;5234019;27;35161;-92
2022/03/25 06:58:05;;;;;;;;;;;;;;;11.07;36.20;100562.75;5235627;27;34632;-94
2022/03/25 07:00:34;;;;;;;;;;;;;;;11.35;35.26;100561.84;5236930;27;34448;-93
2022/03/25 07:03:06;;;;;;;;;;;;;;;11.62;34.30;100561.78;5240117;27;33618;-92
2022/03/25 07:05:36;;;;;;;;;;;;;;;11.86;33.42;100562.53;5236595;27;33620;-93
2022/03/25 07:08:05;;;;;;;;;;;;;;;12.16;32.62;100565.00;5235907;27;33916;-92
2022/03/25 07:10:36;;;;;;;;;;;;;;;12.10;32.53;100559.84;5216926;27;33118;-94
2022/03/25 07:13:05;;;;;;;;;;;;;;;12.22;32.51;100564.09;5215934;27;31749;-93
2022/03/25 07:15:35;;;;;;;;;;;;;;;12.42;32.12;100565.72;5240703;27;34388;-93
2022/03/25 07:18:04;;;;;;;;;;;;;;;12.45;32.70;100570.91;5218723;27;33706;-94
2022/03/25 07:20:33;;;;;;;;;;;;;;;12.69;31.70;100575.94;5236844;27;34739;-91
2022/03/25 07:23:02;;;;;;;;;;;;;;;12.74;31.62;100574.16;5216256;27;32984;-91
2022/03/25 07:25:31;;;;;;;;;;;;;;;12.83;31.33;100573.25;5213572;27;32812;-91
2022/03/25 07:28:01;;;;;;;;;;;;;;;13.16;30.93;100579.87;5234147;27;33835;-92
2022/03/25 07:30:30;;;;;;;;;;;;;;;13.30;30.45;100578.91;5238972;27;34209;-94
2022/03/25 07:32:59;;;;;;;;;;;;;;;13.29;30.60;100572.84;5234207;27;33302;-96
2022/03/25 07:35:29;;;;;;;;;;;;;;;13.32;30.47;100572.81;5234959;27;33324;-92
2022/03/25 07:37:57;;;;;;;;;;;;;;;13.32;30.17;100577.16;5235164;27;33485;-92
2022/03/25 07:40:26;;;;;;;;;;;;;;;13.45;30.63;100584.81;5233366;27;33866;-94
2022/03/25 07:42:55;;;;;;;;;;;;;;;13.56;30.18;100576.91;5238815;27;34075;-94
2022/03/25 07:45:24;;;;;;;;;;;;;;;13.61;30.11;100574.25;5237060;27;34169;-93
2022/03/25 07:47:53;;;;;;;;;;;;;;;13.61;30.16;100585.53;5235406;27;33681;-93
2022/03/25 07:50:23;;;;;;;;;;;;;;;14.00;29.51;100585.91;5237788;27;34557;-93
2022/03/25 07:52:52;;;;;;;;;;;;;;;14.00;29.38;100587.66;5235802;27;32217;-94
2022/03/25 07:55:21;;;;;;;;;;;;;;;13.85;29.95;100586.13;5239378;27;34299;-93
2022/03/25 07:57:50;;;;;;;;;;;;;;;13.94;29.62;100582.50;5215612;27;33673;-93
2022/03/25 08:00:21;;;;;;;;;;;;;;;13.88;29.89;100588.69;5231989;27;34172;-94
2022/03/25 08:02:52;;;;;;;;;;;;;;;14.07;29.42;100579.75;5232893;27;33792;-93
2022/03/25 08:05:21;;;;;;;;;;;;;;;14.08;29.57;100584.06;5215307;27;33979;-93
2022/03/25 08:07:52;;;;;;;;;;;;;;;14.34;29.19;100582.00;5234721;27;33685;-93
2022/03/25 08:10:22;;;;;;;;;;;;;;;14.20;28.77;100584.78;5239336;27;33647;-93
2022/03/25 08:12:51;;;;;;;;;;;;;;;14.19;28.91;100585.69;5236084;27;33637;-92
2022/03/25 08:15:20;;;;;;;;;;;;;;;14.34;28.26;100584.59;5236162;27;33945;-92
2022/03/25 08:17:50;;;;;;;;;;;;;;;14.26;28.83;100579.50;5232738;27;34324;-94
2022/03/25 08:20:24;;;;;;;;;;;;;;;14.35;28.69;100581.94;5231334;27;35084;-93
2022/03/25 08:22:53;;;;;;;;;;;;;;;14.39;28.85;100581.03;5237630;27;32821;-94
2022/03/25 08:28:08;;;;;;;;;;;;;;;14.65;28.88;100582.44;5218361;27;33346;-92
2022/03/25 08:30:37;;;;;;;;;;;;;;;14.80;28.58;100579.56;5235904;27;34338;-92
2022/03/25 08:33:06;;;;;;;;;;;;;;;14.93;28.27;100577.59;5216074;27;32592;-94
2022/03/25 08:35:37;;;;;;;;;;;;;;;14.98;28.44;100590.59;5234765;27;33873;-93
2022/03/25 08:38:07;;;;;;;;;;;;;;;15.01;27.71;100583.56;5239169;27;32710;-94
2022/03/25 08:40:35;;;;;;;;;;;;;;;15.14;28.02;100579.84;5232553;27;35431;-92
2022/03/25 08:43:24;;;;;;;;;;;;;;;15.26;26.95;100565.69;5213674;27;32212;-95
2022/03/25 08:45:52;;;;;;;;;;;;;;;15.30;27.67;100577.84;5215568;27;32984;-93
2022/03/25 08:48:21;;;;;;;;;;;;;;;15.40;27.71;100575.91;5213982;27;32654;-94
2022/03/25 08:50:51;;;;;;;;;;;;;;;15.47;27.60;100584.50;5232157;27;34269;-95
2022/03/25 08:53:28;;;;;;;;;;;;;;;15.65;27.26;100573.66;5215901;27;33439;-94
2022/03/25 08:56:01;;;;;;;;;;;;;;;15.72;26.49;100577.91;5229963;27;33425;-95
2022/03/25 08:58:30;;;;;;;;;;;;;;;15.68;26.59;100577.97;5229711;27;33793;-95
2022/03/25 09:01:00;;;;;;;;;;;;;;;15.86;26.62;100580.25;5229134;27;34477;-94
2022/03/25 09:03:29;;;;;;;;;;;;;;;15.88;26.41;100588.09;5211048;27;31597;-95
2022/03/25 09:05:59;;;;;;;;;;;;;;;16.00;25.99;100582.59;5234380;27;34067;-96
2022/03/25 09:08:35;;;;;;;;;;;;;;;15.97;26.12;100580.91;5233739;27;34098;-96
2022/03/25 09:11:04;;;;;;;;;;;;;;;15.92;25.57;100582.75;5226329;27;34385;-96
2022/03/25 09:13:33;;;;;;;;;;;;;;;15.88;25.25;100575.84;5207682;27;33731;-92
2022/03/25 09:16:02;;;;;;;;;;;;;;;15.99;25.94;100579.13;5226516;27;34557;-94
2022/03/25 09:18:30;;;;;;;;;;;;;;;15.97;25.85;100574.78;5227634;27;34109;-96
2022/03/25 09:21:05;;;;;;;;;;;;;;;16.19;25.38;100567.34;5236572;27;34739;-96
2022/03/25 09:23:33;;;;;;;;;;;;;;;16.08;25.89;100570.19;5230839;27;33949;-93
2022/03/25 09:26:02;;;;;;;;;;;;;;;16.34;25.46;100567.00;5210196;27;32128;-93
2022/03/25 09:28:31;;;;;;;;;;;;;;;16.58;25.22;100573.41;5229337;27;32960;-93
2022/03/25 09:30:59;;;;;;;;;;;;;;;16.21;25.26;100571.66;5228289;27;34328;-96
2022/03/25 09:33:28;;;;;;;;;;;;;;;16.32;25.81;100570.56;5234202;27;33181;-94
2022/03/25 09:35:57;;;;;;;;;;;;;;;16.43;25.85;100558.94;5227636;27;32440;-92
2022/03/25 09:38:27;;;;;;;;;;;;;;;16.66;25.40;100567.13;5227903;27;34413;-96
2022/03/25 09:41:03;;;;;;;;;;;;;;;16.65;25.15;100566.28;5228980;27;33905;-95
2022/03/25 09:43:31;;;;;;;;;;;;;;;16.63;24.91;100571.56;5210030;27;31421;-95
2022/03/25 09:46:05;;;;;;;;;;;;;;;16.70;25.29;100567.03;5228513;27;34590;-94
2022/03/25 09:48:34;;;;;;;;;;;;;;;16.67;24.90;100561.84;5234062;27;33776;-91
2022/03/25 09:51:25;;;;;;;;;;;;;;;16.91;25.38;100565.66;5209520;27;32323;-94
2022/03/25 09:53:54;;;;;;;;;;;;;;;17.11;24.58;100561.69;5229194;27;33214;-93
2022/03/25 09:56:35;;;;;;;;;;;;;;;16.93;24.69;100558.63;5227982;27;35684;-94
2022/03/25 09:59:03;;;;;;;;;;;;;;;16.56;24.98;100563.88;5226891;27;33877;-93
2022/03/25 10:01:32;;;;;;;;;;;;;;;16.83;25.23;100557.12;5226810;27;34421;-96
2022/03/25 10:04:04;;;;;;;;;;;;;;;17.05;24.43;100557.44;5213734;27;31614;-93
2022/03/25 10:06:32;;;;;;;;;;;;;;;16.93;25.06;100550.75;5228931;27;33634;-93
2022/03/25 10:09:03;;;;;;;;;;;;;;;17.23;24.94;100541.22;5227009;27;35044;-95
2022/03/25 10:11:32;;;;;;;;;;;;;;;17.32;24.34;100532.22;5226976;27;33710;-93
2022/03/25 10:14:18;;;;;;;;;;;;;;;17.00;24.65;100533.97;5208172;27;33748;-93
2022/03/25 10:16:49;;;;;;;;;;;;;;;17.13;24.55;100533.62;5226836;27;34128;-92
2022/03/25 10:19:19;;;;;;;;;;;;;;;17.18;24.52;100529.13;5233239;27;33521;-95
2022/03/25 10:21:58;;;;;;;;;;;;;;;17.16;24.26;100531.81;5227354;27;34004;-93
2022/03/25 10:24:37;;;;;;;;;;;;;;;17.12;24.57;100529.31;5228610;27;33843;-92
2022/03/25 10:27:14;;;;;;;;;;;;;;;17.29;23.71;100513.97;5233937;27;34190;-92
2022/03/25 10:29:44;;;;;;;;;;;;;;;17.42;24.34;100512.75;5233808;27;35028;-91
2022/03/25 10:32:13;;;;;;;;;;;;;;;17.43;23.91;100514.44;5229128;27;34310;-95
2022/03/25 10:34:43;;;;;;;;;;;;;;;17.49;24.04;100506.41;5214402;27;31981;-93
2022/03/25 10:37:12;;;;;;;;;;;;;;;17.55;24.03;100508.00;5208514;27;33495;-93
2022/03/25 10:39:51;;;;;;;;;;;;;;;17.43;23.94;100501.34;5225073;27;33016;-93
2022/03/25 10:42:19;;;;;;;;;;;;;;;17.53;23.91;100504.56;5210086;27;33117;-95
2022/03/25 10:44:48;;;;;;;;;;;;;;;17.80;23.74;100502.03;5228842;27;32803;-93
2022/03/25 10:47:22;;;;;;;;;;;;;;;18.05;23.23;100499.53;5231306;27;32368;-96
2022/03/25 10:49:55;;;;;;;;;;;;;;;17.89;23.52;100501.78;5200735;27;34047;-95
2022/03/25 10:52:36;;;;;;;;;;;;;;;17.97;22.68;100499.75;5211458;27;33613;-94
2022/03/25 10:55:16;;;;;;;;;;;;;;;17.92;22.87;100494.66;5212467;27;32159;-96
2022/03/25 10:58:10;;;;;;;;;;;;;;;18.12;22.83;100495.81;5231369;27;33563;-96
2022/03/25 11:00:40;;;;;;;;;;;;;;;17.98;22.36;100484.91;5213879;27;34902;-95
2022/03/25 11:03:09;;;;;;;;;;;;;;;17.62;23.35;100485.06;5212818;27;33764;-95
2022/03/25 11:05:44;;;;;;;;;;;;;;;17.80;23.27;100491.53;5229367;27;33376;-93
2022/03/25 11:08:12;;;;;;;;;;;;;;;17.94;22.81;100484.13;5216899;27;34118;-93
2022/03/25 11:10:43;;;;;;;;;;;;;;;18.15;22.44;100477.34;5228238;27;35028;-88
2022/03/25 11:13:11;;;;;;;;;;;;;;;18.29;22.71;100479.50;5228908;27;34134;-87
2022/03/25 11:15:40;;;;;;;;;;;;;;;18.32;22.59;100475.03;5209535;27;32342;-88
2022/03/25 11:18:09;;;;;;;;;;;;;;;18.27;22.29;100482.19;5228502;27;34201;-88
2022/03/25 11:20:40;;;;;;;;;;;;;;;18.13;22.52;100479.16;5234214;27;35286;-88
2022/03/25 11:23:11;;;;;;;;;;;;;;;18.24;22.30;100469.19;5228527;27;34833;-88
2022/03/25 11:25:40;;;;;;;;;;;;;;;18.21;22.78;100473.66;5226696;27;33530;-88
2022/03/25 11:28:13;;;;;;;;;;;;;;;18.71;22.41;100471.13;5225907;27;33869;-88
2022/03/25 11:30:42;;;;;;;;;;;;;;;18.50;22.18;100457.78;5226707;27;32929;-89
2022/03/25 11:33:10;;;;;;;;;;;;;;;18.78;22.55;100466.56;5232050;27;34439;-88
2022/03/25 11:35:39;;;;;;;;;;;;;;;18.74;21.83;100458.72;5227710;27;33793;-88
2022/03/25 11:38:23;;;;;;;;;;;;;;;19.01;21.82;100458.69;5228432;27;34210;-88
2022/03/25 11:40:52;;;;;;;;;;;;;;;18.86;21.79;100453.97;5226815;27;33742;-89
2022/03/25 11:43:23;;;;;;;;;;;;;;;18.76;22.23;100462.19;5228033;27;34433;-88
2022/03/25 11:46:06;;;;;;;;;;;;;;;18.48;22.41;100457.00;5228603;27;33572;-88
2022/03/25 11:48:39;;;;;;;;;;;;;;;18.86;22.19;100448.72;5212846;27;32887;-89
2022/03/25 11:51:27;;;;;;;;;;;;;;;19.16;22.67;100445.00;5233995;27;34712;-88
2022/03/25 11:53:56;;;;;;;;;;;;;;;18.24;22.63;100439.41;5227074;27;34891;-89
2022/03/25 11:56:25;;;;;;;;;;;;;;;19.16;21.80;100438.88;5227584;27;33122;-88
2022/03/25 11:59:01;;;;;;;;;;;;;;;19.07;22.44;100441.84;5228243;27;34977;-88
2022/03/25 12:01:31;;;;;;;;;;;;;;;19.06;22.28;100432.22;5228857;27;34152;-89
2022/03/25 12:04:00;;;;;;;;;;;;;;;19.30;22.02;100427.84;5228812;27;34461;-89
2022/03/25 12:06:29;;;;;;;;;;;;;;;19.26;22.47;100428.88;5234233;27;33409;-88
2022/03/25 12:08:58;;;;;;;;;;;;;;;19.28;21.83;100421.78;5228114;27;34030;-88
2022/03/25 12:11:46;;;;;;;;;;;;;;;19.23;21.57;100423.72;5228513;27;34328;-88
2022/03/25 12:14:16;;;;;;;;;;;;;;;19.12;21.36;100421.50;5229086;27;33994;-89
2022/03/25 12:16:54;;;;;;;;;;;;;;;19.56;20.71;100417.19;5228863;27;33787;-88
2022/03/25 12:19:43;;;;;;;;;;;;;;;19.49;21.30;100420.97;5228199;27;34120;-88
2022/03/25 12:22:36;;;;;;;;;;;;;;;19.26;21.47;100421.00;5234442;27;34783;-89
2022/03/25 12:25:23;;;;;;;;;;;;;;;19.07;21.26;100416.41;5233927;27;33688;-87
2022/03/25 12:27:55;;;;;;;;;;;;;;;19.26;21.45;100410.47;5232298;27;33590;-87
2022/03/25 12:30:25;;;;;;;;;;;;;;;19.00;21.87;100412.28;5227825;27;33893;-88
2022/03/25 12:32:53;;;;;;;;;;;;;;;19.42;21.97;100405.47;5225846;27;34905;-87
2022/03/25 12:35:26;;;;;;;;;;;;;;;19.56;20.41;100398.75;5226795;27;34777;-88
2022/03/25 12:38:14;;;;;;;;;;;;;;;19.47;20.09;100401.72;5227898;27;34326;-87
2022/03/25 12:40:44;;;;;;;;;;;;;;;19.24;20.64;100396.53;5233164;27;34851;-87
2022/03/25 12:43:31;;;;;;;;;;;;;;;19.78;20.41;100392.69;5233019;27;34256;-87
2022/03/25 12:46:08;;;;;;;;;;;;;;;19.94;20.58;100393.78;5227865;27;33940;-88
2022/03/25 12:48:38;;;;;;;;;;;;;;;20.09;20.09;100394.91;5228041;27;33038;-88
2022/03/25 12:51:07;;;;;;;;;;;;;;;19.97;19.76;100393.66;5228648;27;34306;-88
2022/03/25 12:53:35;;;;;;;;;;;;;;;19.72;19.56;100385.87;5227720;27;33684;-89
2022/03/25 12:56:06;;;;;;;;;;;;;;;19.81;20.14;100382.91;5233058;27;34724;-89
2022/03/25 12:58:39;;;;;;;;;;;;;;;20.18;19.65;100380.53;5233837;27;33474;-88
2022/03/25 13:01:14;;;;;;;;;;;;;;;20.27;19.63;100382.75;5226844;27;34067;-88
2022/03/25 13:03:43;;;;;;;;;;;;;;;20.53;19.35;100379.00;5227630;27;33937;-88
2022/03/25 13:06:12;;;;;;;;;;;;;;;20.62;19.28;100380.44;5227963;27;33811;-88
2022/03/25 13:08:40;;;;;;;;;;;;;;;20.25;20.06;100379.34;5226195;27;33521;-88
2022/03/25 13:11:11;;;;;;;;;;;;;;;19.92;19.85;100365.78;5233111;27;35043;-88
2022/03/25 13:13:39;;;;;;;;;;;;;;;19.88;19.91;100367.69;5227644;27;34988;-88
2022/03/25 13:16:08;;;;;;;;;;;;;;;20.24;19.23;100374.97;5208089;27;33190;-88
2022/03/25 13:18:38;;;;;;;;;;;;;;;20.58;19.23;100365.66;5228155;27;33894;-89
2022/03/25 13:21:08;;;;;;;;;;;;;;;20.79;19.56;100367.34;5227500;27;35472;-88
2022/03/25 13:23:36;;;;;;;;;;;;;;;21.06;19.39;100369.66;5232307;27;33958;-88
2022/03/25 13:26:05;;;;;;;;;;;;;;;21.27;18.72;100367.81;5227156;27;34269;-87
2022/03/25 13:28:35;;;;;;;;;;;;;;;21.41;18.62;100361.94;5228155;27;33579;-87
2022/03/25 13:31:05;;;;;;;;;;;;;;;20.99;18.75;100353.25;5228480;27;34717;-88
2022/03/25 13:33:48;;;;;;;;;;;;;;;21.02;19.33;100357.53;5228158;27;34954;-88
2022/03/25 13:36:18;;;;;;;;;;;;;;;21.22;18.14;100354.00;5226610;27;33237;-87
2022/03/25 13:38:48;;;;;;;;;;;;;;;21.12;18.55;100358.84;5230584;27;32530;-88
2022/03/25 13:41:17;;;;;;;;;;;;;;;21.22;18.37;100357.47;5225767;27;34412;-88
2022/03/25 13:43:47;;;;;;;;;;;;;;;21.26;18.59;100352.91;5224066;27;34015;-87
2022/03/25 13:46:19;;;;;;;;;;;;;;;21.34;18.78;100357.84;5205315;27;33953;-87
2022/03/25 13:48:51;;;;;;;;;;;;;;;21.18;18.68;100350.62;5227384;27;33192;-88
2022/03/25 13:51:20;;;;;;;;;;;;;;;21.00;18.98;100341.78;5207485;27;37544;-88
2022/03/25 13:53:49;;;;;;;;;;;;;;;20.88;19.08;100347.62;5212331;27;33492;-87
2022/03/25 13:56:19;;;;;;;;;;;;;;;20.95;18.93;100340.25;5225531;27;34251;-87